sensor_id;sensor_type;location;lat;lon;timestamp;P1;durP1;ratioP1;P2;durP2;ratioP2
11847;SDS011;5983;49.966;8.052;2023-02-17T00:01:50;21.43;;;15.20;;
11847;SDS011;5983;49.966;8.052;2023-02-17T00:04:18;18.93;;;14.07;;
11847;SDS011;5983;49.966;8.052;2023-02-17T00:06:46;19.07;;;13.93;;
11847;SDS011;5983;49.966;8.052;2023-02-17T00:09:13;20.10;;;14.47;;
11847;SDS011;5983;49.966;8.052;2023-02-17T00:11:40;24.00;;;17.23;;
11847;SDS011;5983;49.966;8.052;2023-02-17T00:14:07;22.97;;;17.10;;
11847;SDS011;5983;49.966;8.052;2023-02-17T00:16:37;21.30;;;15.70;;
11847;SDS011;5983;49.966;8.052;2023-02-17T00:19:05;22.07;;;15.73;;
11847;SDS011;5983;49.966;8.052;2023-02-17T00:21:48;22.67;;;15.23;;
11847;SDS011;5983;49.966;8.052;2023-02-17T00:24:15;22.27;;;15.80;;
11847;SDS011;5983;49.966;8.052;2023-02-17T00:26:43;22.67;;;15.20;;
11847;SDS011;5983;49.966;8.052;2023-02-17T00:29:10;25.63;;;17.00;;
11847;SDS011;5983;49.966;8.052;2023-02-17T00:31:37;21.53;;;15.67;;
11847;SDS011;5983;49.966;8.052;2023-02-17T00:34:04;21.83;;;15.53;;
11847;SDS011;5983;49.966;8.052;2023-02-17T00:36:31;23.70;;;16.40;;
11847;SDS011;5983;49.966;8.052;2023-02-17T00:38:59;22.97;;;15.90;;
11847;SDS011;5983;49.966;8.052;2023-02-17T00:41:26;24.23;;;16.00;;
11847;SDS011;5983;49.966;8.052;2023-02-17T00:43:54;22.23;;;15.37;;
11847;SDS011;5983;49.966;8.052;2023-02-17T00:46:21;19.30;;;13.87;;
11847;SDS011;5983;49.966;8.052;2023-02-17T00:48:49;20.13;;;13.90;;
11847;SDS011;5983;49.966;8.052;2023-02-17T00:51:16;21.00;;;14.60;;
11847;SDS011;5983;49.966;8.052;2023-02-17T00:53:44;21.20;;;14.17;;
11847;SDS011;5983;49.966;8.052;2023-02-17T00:56:13;19.37;;;13.90;;
11847;SDS011;5983;49.966;8.052;2023-02-17T00:58:41;19.07;;;13.93;;
11847;SDS011;5983;49.966;8.052;2023-02-17T01:01:08;17.37;;;13.23;;
11847;SDS011;5983;49.966;8.052;2023-02-17T01:03:36;20.73;;;14.13;;
11847;SDS011;5983;49.966;8.052;2023-02-17T01:06:05;18.83;;;13.50;;
11847;SDS011;5983;49.966;8.052;2023-02-17T01:08:33;18.77;;;14.47;;
11847;SDS011;5983;49.966;8.052;2023-02-17T01:11:01;20.37;;;14.00;;
11847;SDS011;5983;49.966;8.052;2023-02-17T01:13:29;19.10;;;13.37;;
11847;SDS011;5983;49.966;8.052;2023-02-17T01:15:56;18.53;;;13.67;;
11847;SDS011;5983;49.966;8.052;2023-02-17T01:18:23;25.73;;;15.13;;
11847;SDS011;5983;49.966;8.052;2023-02-17T01:20:50;18.53;;;13.50;;
11847;SDS011;5983;49.966;8.052;2023-02-17T01:23:18;19.03;;;14.23;;
11847;SDS011;5983;49.966;8.052;2023-02-17T01:25:45;17.97;;;13.90;;
11847;SDS011;5983;49.966;8.052;2023-02-17T01:28:16;21.20;;;14.17;;
11847;SDS011;5983;49.966;8.052;2023-02-17T01:30:46;20.43;;;13.90;;
11847;SDS011;5983;49.966;8.052;2023-02-17T01:33:14;19.13;;;13.67;;
11847;SDS011;5983;49.966;8.052;2023-02-17T01:35:41;18.77;;;13.70;;
11847;SDS011;5983;49.966;8.052;2023-02-17T01:38:08;20.27;;;14.00;;
11847;SDS011;5983;49.966;8.052;2023-02-17T01:40:35;20.93;;;14.87;;
11847;SDS011;5983;49.966;8.052;2023-02-17T01:43:02;19.83;;;13.60;;
11847;SDS011;5983;49.966;8.052;2023-02-17T01:45:33;21.93;;;14.30;;
11847;SDS011;5983;49.966;8.052;2023-02-17T01:48:08;20.37;;;14.00;;
11847;SDS011;5983;49.966;8.052;2023-02-17T01:50:42;18.87;;;13.00;;
11847;SDS011;5983;49.966;8.052;2023-02-17T01:53:15;20.77;;;14.17;;
11847;SDS011;5983;49.966;8.052;2023-02-17T01:55:47;21.50;;;14.13;;
11847;SDS011;5983;49.966;8.052;2023-02-17T01:58:16;21.53;;;14.23;;
11847;SDS011;5983;49.966;8.052;2023-02-17T02:00:47;19.07;;;14.30;;
11847;SDS011;5983;49.966;8.052;2023-02-17T02:03:19;20.40;;;13.67;;
11847;SDS011;5983;49.966;8.052;2023-02-17T02:05:46;22.53;;;14.90;;
11847;SDS011;5983;49.966;8.052;2023-02-17T02:08:16;21.10;;;14.37;;
11847;SDS011;5983;49.966;8.052;2023-02-17T02:10:43;19.93;;;14.53;;
11847;SDS011;5983;49.966;8.052;2023-02-17T02:13:10;18.83;;;13.97;;
11847;SDS011;5983;49.966;8.052;2023-02-17T02:15:39;22.17;;;14.10;;
11847;SDS011;5983;49.966;8.052;2023-02-17T02:18:15;23.53;;;14.80;;
11847;SDS011;5983;49.966;8.052;2023-02-17T02:24:30;17.73;;;13.33;;
11847;SDS011;5983;49.966;8.052;2023-02-17T02:27:15;19.60;;;13.87;;
11847;SDS011;5983;49.966;8.052;2023-02-17T02:33:24;19.00;;;13.07;;
11847;SDS011;5983;49.966;8.052;2023-02-17T02:36:04;16.97;;;11.73;;
11847;SDS011;5983;49.966;8.052;2023-02-17T02:38:43;12.10;;;9.40;;
11847;SDS011;5983;49.966;8.052;2023-02-17T02:41:19;10.93;;;7.80;;
11847;SDS011;5983;49.966;8.052;2023-02-17T02:43:52;10.93;;;6.77;;
11847;SDS011;5983;49.966;8.052;2023-02-17T02:46:19;8.80;;;6.20;;
11847;SDS011;5983;49.966;8.052;2023-02-17T02:48:48;11.00;;;7.40;;
11847;SDS011;5983;49.966;8.052;2023-02-17T02:51:22;13.37;;;6.87;;
11847;SDS011;5983;49.966;8.052;2023-02-17T02:57:07;8.23;;;6.13;;
11847;SDS011;5983;49.966;8.052;2023-02-17T02:59:51;8.83;;;6.73;;
11847;SDS011;5983;49.966;8.052;2023-02-17T03:02:36;9.67;;;6.47;;
11847;SDS011;5983;49.966;8.052;2023-02-17T03:05:14;9.33;;;7.70;;
11847;SDS011;5983;49.966;8.052;2023-02-17T03:07:52;11.20;;;7.70;;
11847;SDS011;5983;49.966;8.052;2023-02-17T03:10:27;11.57;;;8.13;;
11847;SDS011;5983;49.966;8.052;2023-02-17T03:12:53;14.93;;;9.57;;
11847;SDS011;5983;49.966;8.052;2023-02-17T03:15:22;14.57;;;9.80;;
11847;SDS011;5983;49.966;8.052;2023-02-17T03:17:55;16.47;;;12.07;;
11847;SDS011;5983;49.966;8.052;2023-02-17T03:20:24;19.33;;;12.93;;
11847;SDS011;5983;49.966;8.052;2023-02-17T03:22:55;17.37;;;11.50;;
11847;SDS011;5983;49.966;8.052;2023-02-17T03:25:22;10.67;;;8.03;;
11847;SDS011;5983;49.966;8.052;2023-02-17T03:27:49;10.00;;;7.13;;
11847;SDS011;5983;49.966;8.052;2023-02-17T03:30:16;7.67;;;6.30;;
11847;SDS011;5983;49.966;8.052;2023-02-17T03:32:43;8.60;;;6.23;;
11847;SDS011;5983;49.966;8.052;2023-02-17T03:35:11;8.00;;;5.93;;
11847;SDS011;5983;49.966;8.052;2023-02-17T03:37:39;8.13;;;5.53;;
11847;SDS011;5983;49.966;8.052;2023-02-17T03:40:07;6.53;;;5.43;;
11847;SDS011;5983;49.966;8.052;2023-02-17T03:42:35;7.20;;;4.37;;
11847;SDS011;5983;49.966;8.052;2023-02-17T03:45:03;6.70;;;4.93;;
11847;SDS011;5983;49.966;8.052;2023-02-17T03:47:30;5.33;;;4.80;;
11847;SDS011;5983;49.966;8.052;2023-02-17T03:49:57;6.13;;;4.73;;
11847;SDS011;5983;49.966;8.052;2023-02-17T03:52:24;5.97;;;4.77;;
11847;SDS011;5983;49.966;8.052;2023-02-17T03:54:52;8.90;;;5.40;;
11847;SDS011;5983;49.966;8.052;2023-02-17T03:57:19;5.50;;;4.67;;
11847;SDS011;5983;49.966;8.052;2023-02-17T03:59:46;7.70;;;5.10;;
11847;SDS011;5983;49.966;8.052;2023-02-17T04:02:13;6.20;;;5.03;;
11847;SDS011;5983;49.966;8.052;2023-02-17T04:04:40;6.93;;;5.10;;
11847;SDS011;5983;49.966;8.052;2023-02-17T04:07:07;7.20;;;5.30;;
11847;SDS011;5983;49.966;8.052;2023-02-17T04:09:34;7.17;;;5.40;;
11847;SDS011;5983;49.966;8.052;2023-02-17T04:12:03;7.03;;;4.87;;
11847;SDS011;5983;49.966;8.052;2023-02-17T04:14:30;5.97;;;4.90;;
11847;SDS011;5983;49.966;8.052;2023-02-17T04:16:57;6.30;;;5.50;;
11847;SDS011;5983;49.966;8.052;2023-02-17T04:19:24;6.90;;;5.10;;
11847;SDS011;5983;49.966;8.052;2023-02-17T04:21:51;5.93;;;5.13;;
11847;SDS011;5983;49.966;8.052;2023-02-17T04:24:18;5.90;;;5.30;;
11847;SDS011;5983;49.966;8.052;2023-02-17T04:26:45;8.80;;;5.50;;
11847;SDS011;5983;49.966;8.052;2023-02-17T04:29:13;5.87;;;4.70;;
11847;SDS011;5983;49.966;8.052;2023-02-17T04:31:40;6.03;;;4.50;;
11847;SDS011;5983;49.966;8.052;2023-02-17T04:34:07;7.83;;;5.13;;
11847;SDS011;5983;49.966;8.052;2023-02-17T04:36:34;5.20;;;4.70;;
11847;SDS011;5983;49.966;8.052;2023-02-17T04:39:01;5.73;;;4.70;;
11847;SDS011;5983;49.966;8.052;2023-02-17T04:41:28;6.37;;;4.93;;
11847;SDS011;5983;49.966;8.052;2023-02-17T04:43:55;5.47;;;4.30;;
11847;SDS011;5983;49.966;8.052;2023-02-17T04:46:23;6.13;;;5.13;;
11847;SDS011;5983;49.966;8.052;2023-02-17T04:48:50;5.13;;;4.23;;
11847;SDS011;5983;49.966;8.052;2023-02-17T04:51:17;4.60;;;3.80;;
11847;SDS011;5983;49.966;8.052;2023-02-17T04:53:43;5.17;;;4.33;;
11847;SDS011;5983;49.966;8.052;2023-02-17T04:56:10;5.27;;;4.13;;
11847;SDS011;5983;49.966;8.052;2023-02-17T04:58:37;7.30;;;4.80;;
11847;SDS011;5983;49.966;8.052;2023-02-17T05:01:04;4.10;;;3.60;;
11847;SDS011;5983;49.966;8.052;2023-02-17T05:03:32;6.43;;;4.10;;
11847;SDS011;5983;49.966;8.052;2023-02-17T05:05:59;3.67;;;3.37;;
11847;SDS011;5983;49.966;8.052;2023-02-17T05:08:26;5.13;;;3.90;;
11847;SDS011;5983;49.966;8.052;2023-02-17T05:10:53;4.10;;;3.70;;
11847;SDS011;5983;49.966;8.052;2023-02-17T05:13:20;3.50;;;3.20;;
11847;SDS011;5983;49.966;8.052;2023-02-17T05:15:47;5.13;;;3.77;;
11847;SDS011;5983;49.966;8.052;2023-02-17T05:18:14;3.40;;;3.10;;
11847;SDS011;5983;49.966;8.052;2023-02-17T05:20:42;3.37;;;3.03;;
11847;SDS011;5983;49.966;8.052;2023-02-17T05:23:09;5.30;;;3.67;;
11847;SDS011;5983;49.966;8.052;2023-02-17T05:25:36;5.90;;;3.37;;
11847;SDS011;5983;49.966;8.052;2023-02-17T05:28:04;3.60;;;3.30;;
11847;SDS011;5983;49.966;8.052;2023-02-17T05:30:31;3.63;;;2.90;;
11847;SDS011;5983;49.966;8.052;2023-02-17T05:32:58;3.70;;;3.30;;
11847;SDS011;5983;49.966;8.052;2023-02-17T05:35:25;3.53;;;2.87;;
11847;SDS011;5983;49.966;8.052;2023-02-17T05:37:53;3.50;;;3.10;;
11847;SDS011;5983;49.966;8.052;2023-02-17T05:40:20;4.37;;;3.20;;
11847;SDS011;5983;49.966;8.052;2023-02-17T05:42:47;2.87;;;2.60;;
11847;SDS011;5983;49.966;8.052;2023-02-17T05:45:14;3.37;;;2.80;;
11847;SDS011;5983;49.966;8.052;2023-02-17T05:47:41;4.63;;;3.20;;
11847;SDS011;5983;49.966;8.052;2023-02-17T05:50:09;3.50;;;2.80;;
11847;SDS011;5983;49.966;8.052;2023-02-17T05:52:36;2.83;;;2.60;;
11847;SDS011;5983;49.966;8.052;2023-02-17T05:55:05;2.90;;;2.60;;
11847;SDS011;5983;49.966;8.052;2023-02-17T05:57:32;3.27;;;2.90;;
11847;SDS011;5983;49.966;8.052;2023-02-17T05:59:59;3.70;;;2.90;;
11847;SDS011;5983;49.966;8.052;2023-02-17T06:02:26;3.23;;;2.50;;
11847;SDS011;5983;49.966;8.052;2023-02-17T06:04:53;3.67;;;2.17;;
11847;SDS011;5983;49.966;8.052;2023-02-17T06:07:20;2.90;;;2.37;;
11847;SDS011;5983;49.966;8.052;2023-02-17T06:09:47;3.50;;;2.53;;
11847;SDS011;5983;49.966;8.052;2023-02-17T06:12:15;2.50;;;2.20;;
11847;SDS011;5983;49.966;8.052;2023-02-17T06:14:42;2.87;;;2.37;;
11847;SDS011;5983;49.966;8.052;2023-02-17T06:17:11;2.50;;;2.10;;
11847;SDS011;5983;49.966;8.052;2023-02-17T06:19:39;3.13;;;1.97;;
11847;SDS011;5983;49.966;8.052;2023-02-17T06:22:06;2.43;;;1.80;;
11847;SDS011;5983;49.966;8.052;2023-02-17T06:24:33;2.00;;;1.60;;
11847;SDS011;5983;49.966;8.052;2023-02-17T06:27:00;2.63;;;2.10;;
11847;SDS011;5983;49.966;8.052;2023-02-17T06:29:29;1.90;;;1.80;;
11847;SDS011;5983;49.966;8.052;2023-02-17T06:31:56;2.00;;;1.80;;
11847;SDS011;5983;49.966;8.052;2023-02-17T06:34:23;2.27;;;1.87;;
11847;SDS011;5983;49.966;8.052;2023-02-17T06:36:51;2.30;;;1.83;;
11847;SDS011;5983;49.966;8.052;2023-02-17T06:39:18;2.03;;;1.90;;
11847;SDS011;5983;49.966;8.052;2023-02-17T06:41:45;2.03;;;1.77;;
11847;SDS011;5983;49.966;8.052;2023-02-17T06:44:12;2.70;;;1.60;;
11847;SDS011;5983;49.966;8.052;2023-02-17T06:46:40;1.60;;;1.50;;
11847;SDS011;5983;49.966;8.052;2023-02-17T06:49:10;1.63;;;1.53;;
11847;SDS011;5983;49.966;8.052;2023-02-17T06:51:37;2.47;;;1.77;;
11847;SDS011;5983;49.966;8.052;2023-02-17T06:54:04;2.40;;;1.97;;
11847;SDS011;5983;49.966;8.052;2023-02-17T06:56:31;1.70;;;1.60;;
11847;SDS011;5983;49.966;8.052;2023-02-17T06:58:58;1.60;;;1.40;;
11847;SDS011;5983;49.966;8.052;2023-02-17T07:01:26;2.07;;;1.50;;
11847;SDS011;5983;49.966;8.052;2023-02-17T07:03:55;3.70;;;1.83;;
11847;SDS011;5983;49.966;8.052;2023-02-17T07:06:22;1.73;;;1.37;;
11847;SDS011;5983;49.966;8.052;2023-02-17T07:08:50;2.20;;;2.00;;
11847;SDS011;5983;49.966;8.052;2023-02-17T07:11:17;1.93;;;1.70;;
11847;SDS011;5983;49.966;8.052;2023-02-17T07:13:45;2.60;;;2.40;;
11847;SDS011;5983;49.966;8.052;2023-02-17T07:16:12;2.27;;;2.07;;
11847;SDS011;5983;49.966;8.052;2023-02-17T07:18:40;2.30;;;1.83;;
11847;SDS011;5983;49.966;8.052;2023-02-17T07:21:09;2.50;;;2.27;;
11847;SDS011;5983;49.966;8.052;2023-02-17T07:23:36;2.17;;;1.67;;
11847;SDS011;5983;49.966;8.052;2023-02-17T07:26:04;3.30;;;2.00;;
11847;SDS011;5983;49.966;8.052;2023-02-17T07:28:33;2.07;;;1.87;;
11847;SDS011;5983;49.966;8.052;2023-02-17T07:31:03;4.37;;;2.10;;
11847;SDS011;5983;49.966;8.052;2023-02-17T07:33:31;4.10;;;2.20;;
11847;SDS011;5983;49.966;8.052;2023-02-17T07:35:59;3.27;;;2.20;;
11847;SDS011;5983;49.966;8.052;2023-02-17T07:38:32;3.50;;;2.60;;
11847;SDS011;5983;49.966;8.052;2023-02-17T07:41:02;2.97;;;2.40;;
11847;SDS011;5983;49.966;8.052;2023-02-17T07:43:31;2.50;;;2.30;;
11847;SDS011;5983;49.966;8.052;2023-02-17T07:45:58;2.73;;;2.37;;
11847;SDS011;5983;49.966;8.052;2023-02-17T07:48:25;2.30;;;2.10;;
11847;SDS011;5983;49.966;8.052;2023-02-17T07:50:52;2.73;;;2.23;;
11847;SDS011;5983;49.966;8.052;2023-02-17T07:53:19;3.60;;;2.97;;
11847;SDS011;5983;49.966;8.052;2023-02-17T07:55:47;2.43;;;2.23;;
11847;SDS011;5983;49.966;8.052;2023-02-17T07:58:15;3.00;;;2.63;;
11847;SDS011;5983;49.966;8.052;2023-02-17T08:00:42;3.67;;;2.43;;
11847;SDS011;5983;49.966;8.052;2023-02-17T08:03:09;3.70;;;2.10;;
11847;SDS011;5983;49.966;8.052;2023-02-17T08:05:37;2.40;;;2.20;;
11847;SDS011;5983;49.966;8.052;2023-02-17T08:08:05;3.07;;;2.70;;
11847;SDS011;5983;49.966;8.052;2023-02-17T08:10:51;3.70;;;2.37;;
11847;SDS011;5983;49.966;8.052;2023-02-17T08:13:36;2.90;;;2.50;;
11847;SDS011;5983;49.966;8.052;2023-02-17T08:16:03;2.93;;;2.47;;
11847;SDS011;5983;49.966;8.052;2023-02-17T08:18:30;2.70;;;2.30;;
11847;SDS011;5983;49.966;8.052;2023-02-17T08:20:57;3.03;;;2.60;;
11847;SDS011;5983;49.966;8.052;2023-02-17T08:23:24;3.23;;;2.93;;
11847;SDS011;5983;49.966;8.052;2023-02-17T08:25:55;3.03;;;2.37;;
11847;SDS011;5983;49.966;8.052;2023-02-17T08:28:23;3.53;;;2.70;;
11847;SDS011;5983;49.966;8.052;2023-02-17T08:30:50;4.13;;;3.03;;
11847;SDS011;5983;49.966;8.052;2023-02-17T08:33:17;2.60;;;2.17;;
11847;SDS011;5983;49.966;8.052;2023-02-17T08:35:44;3.17;;;2.80;;
11847;SDS011;5983;49.966;8.052;2023-02-17T08:38:10;3.00;;;2.70;;
11847;SDS011;5983;49.966;8.052;2023-02-17T08:40:38;3.97;;;2.97;;
11847;SDS011;5983;49.966;8.052;2023-02-17T08:43:07;3.77;;;2.80;;
11847;SDS011;5983;49.966;8.052;2023-02-17T08:45:34;3.87;;;2.70;;
11847;SDS011;5983;49.966;8.052;2023-02-17T08:48:01;4.47;;;3.07;;
11847;SDS011;5983;49.966;8.052;2023-02-17T08:50:29;3.93;;;2.80;;
11847;SDS011;5983;49.966;8.052;2023-02-17T08:52:57;3.17;;;2.60;;
11847;SDS011;5983;49.966;8.052;2023-02-17T08:55:24;4.03;;;3.27;;
11847;SDS011;5983;49.966;8.052;2023-02-17T08:57:51;4.27;;;3.53;;
11847;SDS011;5983;49.966;8.052;2023-02-17T09:00:20;3.77;;;3.27;;
11847;SDS011;5983;49.966;8.052;2023-02-17T09:02:47;3.73;;;3.30;;
11847;SDS011;5983;49.966;8.052;2023-02-17T09:05:14;5.27;;;3.47;;
11847;SDS011;5983;49.966;8.052;2023-02-17T09:07:41;3.63;;;3.10;;
11847;SDS011;5983;49.966;8.052;2023-02-17T09:10:10;3.57;;;3.20;;
11847;SDS011;5983;49.966;8.052;2023-02-17T09:12:38;3.90;;;3.07;;
11847;SDS011;5983;49.966;8.052;2023-02-17T09:15:06;3.70;;;3.10;;
11847;SDS011;5983;49.966;8.052;2023-02-17T09:17:38;3.13;;;2.83;;
11847;SDS011;5983;49.966;8.052;2023-02-17T09:20:06;3.27;;;2.90;;
11847;SDS011;5983;49.966;8.052;2023-02-17T09:22:34;3.50;;;3.20;;
11847;SDS011;5983;49.966;8.052;2023-02-17T09:25:02;3.63;;;3.17;;
11847;SDS011;5983;49.966;8.052;2023-02-17T09:27:29;3.10;;;2.80;;
11847;SDS011;5983;49.966;8.052;2023-02-17T09:29:56;5.77;;;2.83;;
11847;SDS011;5983;49.966;8.052;2023-02-17T09:32:23;3.43;;;3.13;;
11847;SDS011;5983;49.966;8.052;2023-02-17T09:34:52;4.60;;;2.67;;
11847;SDS011;5983;49.966;8.052;2023-02-17T09:37:19;5.23;;;2.87;;
11847;SDS011;5983;49.966;8.052;2023-02-17T09:39:47;3.10;;;2.43;;
11847;SDS011;5983;49.966;8.052;2023-02-17T09:42:16;3.83;;;2.20;;
11847;SDS011;5983;49.966;8.052;2023-02-17T09:44:47;2.50;;;1.73;;
11847;SDS011;5983;49.966;8.052;2023-02-17T09:47:22;2.03;;;1.83;;
11847;SDS011;5983;49.966;8.052;2023-02-17T09:49:55;2.77;;;2.07;;
11847;SDS011;5983;49.966;8.052;2023-02-17T09:52:29;2.53;;;1.87;;
11847;SDS011;5983;49.966;8.052;2023-02-17T09:55:05;2.30;;;2.10;;
11847;SDS011;5983;49.966;8.052;2023-02-17T09:57:39;2.00;;;1.70;;
11847;SDS011;5983;49.966;8.052;2023-02-17T10:00:16;3.80;;;2.23;;
11847;SDS011;5983;49.966;8.052;2023-02-17T10:02:51;1.67;;;1.57;;
11847;SDS011;5983;49.966;8.052;2023-02-17T10:05:30;2.67;;;1.87;;
11847;SDS011;5983;49.966;8.052;2023-02-17T10:08:07;2.40;;;1.77;;
11847;SDS011;5983;49.966;8.052;2023-02-17T10:10:41;2.17;;;1.53;;
11847;SDS011;5983;49.966;8.052;2023-02-17T10:13:16;1.93;;;1.77;;
11847;SDS011;5983;49.966;8.052;2023-02-17T10:15:47;3.43;;;1.63;;
11847;SDS011;5983;49.966;8.052;2023-02-17T10:18:18;2.60;;;2.17;;
11847;SDS011;5983;49.966;8.052;2023-02-17T10:20:58;2.07;;;1.73;;
11847;SDS011;5983;49.966;8.052;2023-02-17T10:23:31;3.83;;;2.37;;
11847;SDS011;5983;49.966;8.052;2023-02-17T10:26:03;1.77;;;1.60;;
11847;SDS011;5983;49.966;8.052;2023-02-17T10:28:43;1.50;;;1.40;;
11847;SDS011;5983;49.966;8.052;2023-02-17T10:31:25;1.87;;;1.47;;
11847;SDS011;5983;49.966;8.052;2023-02-17T10:34:10;2.10;;;1.40;;
11847;SDS011;5983;49.966;8.052;2023-02-17T10:36:50;2.23;;;1.63;;
11847;SDS011;5983;49.966;8.052;2023-02-17T10:39:34;2.37;;;1.57;;
11847;SDS011;5983;49.966;8.052;2023-02-17T10:42:13;2.10;;;1.50;;
11847;SDS011;5983;49.966;8.052;2023-02-17T10:44:47;1.90;;;1.47;;
11847;SDS011;5983;49.966;8.052;2023-02-17T10:47:17;1.53;;;1.40;;
11847;SDS011;5983;49.966;8.052;2023-02-17T10:49:48;1.57;;;1.47;;
11847;SDS011;5983;49.966;8.052;2023-02-17T10:52:19;5.73;;;4.13;;
11847;SDS011;5983;49.966;8.052;2023-02-17T10:54:52;1.80;;;1.53;;
11847;SDS011;5983;49.966;8.052;2023-02-17T10:57:25;4.03;;;2.47;;
11847;SDS011;5983;49.966;8.052;2023-02-17T11:00:00;2.27;;;1.87;;
11847;SDS011;5983;49.966;8.052;2023-02-17T11:02:32;4.87;;;3.73;;
11847;SDS011;5983;49.966;8.052;2023-02-17T11:05:05;1.50;;;1.40;;
11847;SDS011;5983;49.966;8.052;2023-02-17T11:07:35;2.33;;;1.93;;
11847;SDS011;5983;49.966;8.052;2023-02-17T11:10:18;3.77;;;2.80;;
11847;SDS011;5983;49.966;8.052;2023-02-17T11:12:48;2.07;;;1.70;;
11847;SDS011;5983;49.966;8.052;2023-02-17T11:15:16;2.33;;;2.13;;
11847;SDS011;5983;49.966;8.052;2023-02-17T11:17:47;1.50;;;1.40;;
11847;SDS011;5983;49.966;8.052;2023-02-17T11:20:29;1.73;;;1.60;;
11847;SDS011;5983;49.966;8.052;2023-02-17T11:23:03;1.33;;;1.20;;
11847;SDS011;5983;49.966;8.052;2023-02-17T11:25:42;1.30;;;1.20;;
11847;SDS011;5983;49.966;8.052;2023-02-17T11:28:21;1.30;;;1.20;;
11847;SDS011;5983;49.966;8.052;2023-02-17T11:30:51;1.20;;;1.10;;
11847;SDS011;5983;49.966;8.052;2023-02-17T11:33:22;1.33;;;1.23;;
11847;SDS011;5983;49.966;8.052;2023-02-17T11:35:57;3.97;;;1.13;;
11847;SDS011;5983;49.966;8.052;2023-02-17T11:38:27;1.23;;;1.03;;
11847;SDS011;5983;49.966;8.052;2023-02-17T11:41:07;0.80;;;0.80;;
11847;SDS011;5983;49.966;8.052;2023-02-17T11:43:35;1.60;;;1.00;;
11847;SDS011;5983;49.966;8.052;2023-02-17T11:46:13;0.90;;;0.90;;
11847;SDS011;5983;49.966;8.052;2023-02-17T11:48:55;0.67;;;0.67;;
11847;SDS011;5983;49.966;8.052;2023-02-17T11:51:40;1.07;;;0.80;;
11847;SDS011;5983;49.966;8.052;2023-02-17T11:54:22;1.10;;;0.93;;
11847;SDS011;5983;49.966;8.052;2023-02-17T11:57:03;0.97;;;0.57;;
11847;SDS011;5983;49.966;8.052;2023-02-17T11:59:50;1.37;;;0.80;;
11847;SDS011;5983;49.966;8.052;2023-02-17T12:02:36;0.90;;;0.70;;
11847;SDS011;5983;49.966;8.052;2023-02-17T12:05:40;2.00;;;0.80;;
11847;SDS011;5983;49.966;8.052;2023-02-17T12:08:21;0.50;;;0.50;;
11847;SDS011;5983;49.966;8.052;2023-02-17T12:11:06;0.73;;;0.67;;
11847;SDS011;5983;49.966;8.052;2023-02-17T12:13:48;0.50;;;0.50;;
11847;SDS011;5983;49.966;8.052;2023-02-17T12:16:31;0.63;;;0.60;;
11847;SDS011;5983;49.966;8.052;2023-02-17T12:19:22;1.03;;;0.93;;
11847;SDS011;5983;49.966;8.052;2023-02-17T12:22:12;3.27;;;0.80;;
11847;SDS011;5983;49.966;8.052;2023-02-17T12:24:47;0.80;;;0.80;;
11847;SDS011;5983;49.966;8.052;2023-02-17T12:27:51;0.70;;;0.70;;
11847;SDS011;5983;49.966;8.052;2023-02-17T12:30:36;0.90;;;0.83;;
11847;SDS011;5983;49.966;8.052;2023-02-17T12:33:24;1.40;;;0.90;;
11847;SDS011;5983;49.966;8.052;2023-02-17T12:36:14;0.80;;;0.80;;
11847;SDS011;5983;49.966;8.052;2023-02-17T12:38:47;1.30;;;0.80;;
11847;SDS011;5983;49.966;8.052;2023-02-17T12:41:24;0.70;;;0.70;;
11847;SDS011;5983;49.966;8.052;2023-02-17T12:44:02;1.20;;;0.70;;
11847;SDS011;5983;49.966;8.052;2023-02-17T12:46:37;1.13;;;0.73;;
11847;SDS011;5983;49.966;8.052;2023-02-17T12:49:10;0.87;;;0.70;;
11847;SDS011;5983;49.966;8.052;2023-02-17T12:51:44;1.07;;;0.80;;
11847;SDS011;5983;49.966;8.052;2023-02-17T12:54:16;0.70;;;0.70;;
11847;SDS011;5983;49.966;8.052;2023-02-17T12:56:53;0.80;;;0.80;;
11847;SDS011;5983;49.966;8.052;2023-02-17T12:59:32;0.67;;;0.67;;
11847;SDS011;5983;49.966;8.052;2023-02-17T13:02:04;1.03;;;0.73;;
11847;SDS011;5983;49.966;8.052;2023-02-17T13:04:35;1.17;;;0.70;;
11847;SDS011;5983;49.966;8.052;2023-02-17T13:07:18;0.80;;;0.80;;
11847;SDS011;5983;49.966;8.052;2023-02-17T13:10:01;0.63;;;0.50;;
11847;SDS011;5983;49.966;8.052;2023-02-17T13:12:32;0.70;;;0.70;;
11847;SDS011;5983;49.966;8.052;2023-02-17T13:15:09;0.90;;;0.63;;
11847;SDS011;5983;49.966;8.052;2023-02-17T13:18:01;0.50;;;0.50;;
11847;SDS011;5983;49.966;8.052;2023-02-17T13:20:38;1.13;;;0.57;;
11847;SDS011;5983;49.966;8.052;2023-02-17T13:26:23;0.50;;;0.50;;
11847;SDS011;5983;49.966;8.052;2023-02-17T13:29:05;0.60;;;0.60;;
11847;SDS011;5983;49.966;8.052;2023-02-17T13:32:00;2.00;;;0.60;;
11847;SDS011;5983;49.966;8.052;2023-02-17T13:34:31;2.20;;;0.90;;
11847;SDS011;5983;49.966;8.052;2023-02-17T13:37:02;1.00;;;0.50;;
11847;SDS011;5983;49.966;8.052;2023-02-17T13:39:42;0.60;;;0.60;;
11847;SDS011;5983;49.966;8.052;2023-02-17T13:42:27;1.03;;;0.60;;
11847;SDS011;5983;49.966;8.052;2023-02-17T13:45:10;3.23;;;1.60;;
11847;SDS011;5983;49.966;8.052;2023-02-17T13:47:49;0.50;;;0.50;;
11847;SDS011;5983;49.966;8.052;2023-02-17T13:50:27;8.80;;;4.20;;
11847;SDS011;5983;49.966;8.052;2023-02-17T13:52:57;4.57;;;2.90;;
11847;SDS011;5983;49.966;8.052;2023-02-17T13:55:25;0.40;;;0.40;;
11847;SDS011;5983;49.966;8.052;2023-02-17T13:57:53;0.63;;;0.63;;
11847;SDS011;5983;49.966;8.052;2023-02-17T14:00:23;0.50;;;0.50;;
11847;SDS011;5983;49.966;8.052;2023-02-17T14:02:55;0.93;;;0.77;;
11847;SDS011;5983;49.966;8.052;2023-02-17T14:05:25;0.40;;;0.40;;
11847;SDS011;5983;49.966;8.052;2023-02-17T14:08:02;1.90;;;0.97;;
11847;SDS011;5983;49.966;8.052;2023-02-17T14:10:36;0.50;;;0.50;;
11847;SDS011;5983;49.966;8.052;2023-02-17T14:13:04;1.07;;;0.50;;
11847;SDS011;5983;49.966;8.052;2023-02-17T14:15:36;0.50;;;0.50;;
11847;SDS011;5983;49.966;8.052;2023-02-17T14:18:15;0.40;;;0.33;;
11847;SDS011;5983;49.966;8.052;2023-02-17T14:20:58;0.93;;;0.60;;
11847;SDS011;5983;49.966;8.052;2023-02-17T14:23:38;0.67;;;0.50;;
11847;SDS011;5983;49.966;8.052;2023-02-17T14:26:09;0.43;;;0.40;;
11847;SDS011;5983;49.966;8.052;2023-02-17T14:28:40;0.50;;;0.50;;
11847;SDS011;5983;49.966;8.052;2023-02-17T14:31:19;0.50;;;0.50;;
11847;SDS011;5983;49.966;8.052;2023-02-17T14:33:55;0.50;;;0.50;;
11847;SDS011;5983;49.966;8.052;2023-02-17T14:36:26;0.47;;;0.47;;
11847;SDS011;5983;49.966;8.052;2023-02-17T14:38:56;0.50;;;0.50;;
11847;SDS011;5983;49.966;8.052;2023-02-17T14:41:25;0.80;;;0.50;;
11847;SDS011;5983;49.966;8.052;2023-02-17T14:43:52;0.60;;;0.60;;
11847;SDS011;5983;49.966;8.052;2023-02-17T14:46:19;0.60;;;0.60;;
11847;SDS011;5983;49.966;8.052;2023-02-17T14:48:46;1.07;;;0.97;;
11847;SDS011;5983;49.966;8.052;2023-02-17T14:51:17;1.80;;;1.10;;
11847;SDS011;5983;49.966;8.052;2023-02-17T14:53:46;0.60;;;0.60;;
11847;SDS011;5983;49.966;8.052;2023-02-17T14:56:17;0.60;;;0.60;;
11847;SDS011;5983;49.966;8.052;2023-02-17T14:58:50;0.40;;;0.33;;
11847;SDS011;5983;49.966;8.052;2023-02-17T15:01:18;0.40;;;0.40;;
11847;SDS011;5983;49.966;8.052;2023-02-17T15:03:47;1.33;;;0.50;;
11847;SDS011;5983;49.966;8.052;2023-02-17T15:06:15;0.63;;;0.63;;
11847;SDS011;5983;49.966;8.052;2023-02-17T15:08:45;0.80;;;0.53;;
11847;SDS011;5983;49.966;8.052;2023-02-17T15:11:17;3.97;;;0.70;;
11847;SDS011;5983;49.966;8.052;2023-02-17T15:13:48;1.17;;;0.53;;
11847;SDS011;5983;49.966;8.052;2023-02-17T15:16:15;0.40;;;0.40;;
11847;SDS011;5983;49.966;8.052;2023-02-17T15:18:42;0.40;;;0.40;;
11847;SDS011;5983;49.966;8.052;2023-02-17T15:21:19;0.50;;;0.50;;
11847;SDS011;5983;49.966;8.052;2023-02-17T15:23:50;0.40;;;0.40;;
11847;SDS011;5983;49.966;8.052;2023-02-17T15:26:17;0.67;;;0.50;;
11847;SDS011;5983;49.966;8.052;2023-02-17T15:28:44;1.33;;;0.60;;
11847;SDS011;5983;49.966;8.052;2023-02-17T15:31:12;0.70;;;0.57;;
11847;SDS011;5983;49.966;8.052;2023-02-17T15:33:40;1.13;;;0.50;;